Hlavní strana
METAR-TAF:

METAR-TAF

Letiště :

Samsun, Turecko

zeměpisná šířka: 41-15-15N, zeměpisná délka: 036-34-03E, výška: 5 m

Aktuální stav počasí

Zpráva byla vytvořena před 44 minutami, v 12:50 UTC
Východoseverovýchodní vítr 6 kt, proměnlivý mezi severním a východojihovýchodním
Teplota 11°C
Vlhkost vzduchu 62%
Tlak 1024 hPa
Viditelnost 10 km a více
Polojasno ve výšce 3000 ft
Oblačno až skoro zataženo ve výšce 10000 ft

METAR: LTFH 251250Z 06006KT 010V110 9999 SCT030 BKN100 11/04 Q1024 NOSIG

Čas: 16:34 (13:34 UTC)

Předpověď počasí

Zpráva byla vytvořena před 2 hodinami a 54 minutami, v 10:40 UTC
Předpověď platná od 25 v 12 UTC do 25 v 21 UTC
Severní vítr 6 kt
Viditelnost 10 km a více
Polojasno ve výšce 3000 ft
Oblačno až skoro zataženo ve výšce 10000 ft
Dočasný
od 25 v 14 UTC do 25 v 17 UTC
Oblačno až skoro zataženo ve výšce 2800 ft
Oblačno až skoro zataženo ve výšce 8000 ft
slabé dešťové přeháňky

TAF: LTFH 251040Z 2512/2521 01006KT 9999 SCT030 BKN100 TEMPO 2514/2517 -SHRA BKN028 BKN080

Stav a předpovědi počasí z více než 4 000 letišť (zprávy METAR a TAF).

Červené a žluté tečky na mapě představují dostupné meteorologické stanice.

Když kurzor umístíte na tečku, zobrazí se název stanice.

Pak kliknutím zobrazíte stav a předpověď počasí.

Chcete-li změnit mapu, kliknutím na zelené tlačítko se znaménkem +mapu přiblížíte, kliknutím na zelené tlačítko se znaménkem – mapu oddálíte a kliknutím na zelené šipky přejdete na sousední mapy.


METAR-TAF: